This is the latest recevied weather packets stored in our database for station/object JE4YKI-13. If no packets are shown the sender has not sent any weather packets the latest 10 day(s).
| Time | Temp. | Humidity | Pressure | Rain* | Wind** | Luminosity | Snow |
|---|---|---|---|---|---|---|---|
| 1777846106 | 16.67° C | 69% | 1005.9 hPa | 0 mm | - | - | - |
| 1777845505 | 16.67° C | 70% | 1005.8 hPa | 0 mm | - | - | - |
| 1777844905 | 16.11° C | 72% | 1005.6 hPa | 0 mm | - | - | - |
| 1777844305 | 16.11° C | 73% | 1005.3 hPa | 0 mm | - | - | - |
| 1777843704 | 15.56° C | 74% | 1005.2 hPa | 0 mm | - | - | - |
| 1777843104 | 15.56° C | 73% | 1005 hPa | 0 mm | - | - | - |
| 1777842504 | 15.56° C | 73% | 1004.9 hPa | 0 mm | - | - | - |
| 1777841903 | 15.56° C | 72% | 1004.5 hPa | 0 mm | - | - | - |
| 1777841303 | 15° C | 75% | 1004.3 hPa | 0 mm | - | - | - |
| 1777840703 | 15° C | 77% | 1003.8 hPa | 0 mm | - | - | - |
| 1777840102 | 15° C | 79% | 1004 hPa | 0 mm | - | - | - |
| 1777839502 | 15° C | 79% | 1004 hPa | 0 mm | - | - | - |
| 1777838902 | 15° C | 81% | 1003.8 hPa | 0 mm | - | - | - |
| 1777838301 | 14.44° C | 83% | 1003.5 hPa | 0 mm | - | - | - |
| 1777837701 | 14.44° C | 83% | 1003.4 hPa | 0 mm | - | - | - |
| 1777837100 | 14.44° C | 83% | 1003.5 hPa | 0 mm | - | - | - |
| 1777836500 | 15° C | 82% | 1003.6 hPa | 0 mm | - | - | - |
| 1777835900 | 15° C | 82% | 1003.3 hPa | 0 mm | - | - | - |
| 1777835299 | 15.56° C | 80% | 1003.1 hPa | 0 mm | - | - | - |
| 1777834699 | 15.56° C | 78% | 1002.8 hPa | 0 mm | - | - | - |
| 1777834098 | 16.11° C | 77% | 1002.8 hPa | 0 mm | - | - | - |
| 1777833498 | 16.11° C | 78% | 1002.8 hPa | 0 mm | - | - | - |
| 1777832898 | 15.56° C | 79% | 1003 hPa | 0 mm | - | - | - |
| 1777831697 | 15.56° C | 80% | 1002.7 hPa | 0 mm | - | - | - |
| 1777831097 | 16.11° C | 78% | 1002.7 hPa | 0 mm | - | - | - |
* Rain latest hour (hover to see other rain measurements)
** Current wind speed in m/s (hover to see current wind gust speed)